createdAt,value
2023-02-19T00:01:17.358Z,10.59
2023-02-19T00:03:50.050Z,10.60
2023-02-19T00:06:16.455Z,10.62
2023-02-19T00:08:42.833Z,10.62
2023-02-19T00:11:14.117Z,10.62
2023-02-19T00:13:43.336Z,10.65
2023-02-19T00:16:13.937Z,10.66
2023-02-19T00:18:40.985Z,10.77
2023-02-19T00:21:07.622Z,10.81
2023-02-19T00:23:34.666Z,10.81
2023-02-19T00:26:17.275Z,10.83
2023-02-19T00:28:44.667Z,10.81
2023-02-19T00:31:19.173Z,10.77
2023-02-19T00:33:48.885Z,10.76
2023-02-19T00:36:15.704Z,10.81
2023-02-19T00:38:43.356Z,10.76
2023-02-19T00:41:20.252Z,10.72
2023-02-19T00:44:07.215Z,10.70
2023-02-19T00:46:39.482Z,10.68
2023-02-19T00:49:07.750Z,10.70
2023-02-19T00:51:36.447Z,10.70
2023-02-19T00:54:03.955Z,10.79
2023-02-19T00:56:30.366Z,10.75
2023-02-19T01:00:35.949Z,10.79
2023-02-19T01:03:02.303Z,10.87
2023-02-19T01:05:28.663Z,10.87
2023-02-19T01:07:55.018Z,10.90
2023-02-19T01:10:21.398Z,10.93
2023-02-19T01:12:47.749Z,10.93
2023-02-19T01:15:14.156Z,10.97
2023-02-19T01:17:40.527Z,10.99
2023-02-19T01:20:07.198Z,10.93
2023-02-19T01:22:33.555Z,10.93
2023-02-19T01:25:00.718Z,10.90
2023-02-19T01:27:27.063Z,10.94
2023-02-19T01:29:53.418Z,10.93
2023-02-19T01:32:19.870Z,10.97
2023-02-19T01:34:46.309Z,10.96
2023-02-19T01:37:12.769Z,10.93
2023-02-19T01:39:39.470Z,10.99
2023-02-19T01:42:13.464Z,10.96
2023-02-19T01:44:39.774Z,10.97
2023-02-19T01:47:06.171Z,10.96
2023-02-19T01:49:38.454Z,10.97
2023-02-19T01:52:32.660Z,10.96
2023-02-19T01:55:02.324Z,10.96
2023-02-19T01:57:35.453Z,10.99
2023-02-19T02:00:08.134Z,10.94
2023-02-19T02:02:34.587Z,10.96
2023-02-19T02:05:02.146Z,10.97
2023-02-19T02:07:47.187Z,10.97
2023-02-19T02:10:22.729Z,10.96
2023-02-19T02:12:50.646Z,10.97
2023-02-19T02:15:18.018Z,10.91
2023-02-19T02:17:58.641Z,10.94
2023-02-19T02:20:37.201Z,10.94
2023-02-19T02:23:26.438Z,10.87
2023-02-19T02:26:31.924Z,10.83
2023-02-19T02:29:37.312Z,10.81
2023-02-19T02:32:15.285Z,10.84
2023-02-19T02:34:50.529Z,10.84
2023-02-19T02:37:16.974Z,10.87
2023-02-19T02:39:45.631Z,10.86
2023-02-19T02:42:27.719Z,10.87
2023-02-19T02:45:16.504Z,10.84
2023-02-19T02:47:50.096Z,10.83
2023-02-19T02:50:27.330Z,10.81
2023-02-19T02:53:20.985Z,10.77
2023-02-19T02:55:51.758Z,10.76
2023-02-19T02:58:19.833Z,10.73
2023-02-19T03:01:10.967Z,10.79
2023-02-19T03:03:41.226Z,10.80
2023-02-19T03:06:11.733Z,10.84
2023-02-19T03:08:48.843Z,10.84
2023-02-19T03:11:34.559Z,10.83
2023-02-19T03:14:37.338Z,10.80
2023-02-19T03:17:31.066Z,10.84
2023-02-19T03:20:00.970Z,10.79
2023-02-19T03:22:31.134Z,10.81
2023-02-19T03:25:25.639Z,10.84
2023-02-19T03:27:54.166Z,10.83
2023-02-19T03:30:25.264Z,10.86
2023-02-19T03:33:16.998Z,10.87
2023-02-19T03:35:47.307Z,10.84
2023-02-19T03:38:26.688Z,10.80
2023-02-19T03:40:59.725Z,10.83
2023-02-19T03:43:46.087Z,10.83
2023-02-19T03:46:23.056Z,10.83
2023-02-19T03:49:00.537Z,10.84
2023-02-19T03:51:41.367Z,10.86
2023-02-19T03:54:41.167Z,10.84
2023-02-19T03:57:17.824Z,10.81
2023-02-19T04:00:04.456Z,10.83
2023-02-19T04:02:45.999Z,10.75
2023-02-19T04:05:25.883Z,10.60
2023-02-19T04:07:56.937Z,10.60
2023-02-19T04:10:24.235Z,10.63
2023-02-19T04:12:57.804Z,10.66
2023-02-19T04:15:30.133Z,10.70
2023-02-19T04:18:02.213Z,10.69
2023-02-19T04:20:31.995Z,10.65
2023-02-19T04:22:58.555Z,10.59
2023-02-19T04:25:26.590Z,10.60
2023-02-19T04:27:53.207Z,10.55
2023-02-19T04:30:19.666Z,10.52
2023-02-19T04:32:46.067Z,10.49
2023-02-19T04:35:12.474Z,10.49
2023-02-19T04:37:38.881Z,10.52
2023-02-19T04:40:05.637Z,10.42
2023-02-19T04:42:32.095Z,10.31
2023-02-19T04:44:58.507Z,10.29
2023-02-19T04:47:25.212Z,10.21
2023-02-19T04:49:51.699Z,10.21
2023-02-19T04:52:18.099Z,10.22
2023-02-19T04:54:44.531Z,10.21
2023-02-19T04:57:11.285Z,10.18
2023-02-19T04:59:37.750Z,10.18
2023-02-19T05:02:04.167Z,10.24
2023-02-19T05:04:30.833Z,10.20
2023-02-19T05:06:57.482Z,10.20
2023-02-19T05:09:24.208Z,10.17
2023-02-19T05:11:50.556Z,10.20
2023-02-19T05:14:17.188Z,10.20
2023-02-19T05:16:43.845Z,10.20
2023-02-19T05:19:13.512Z,10.12
2023-02-19T05:21:40.526Z,10.07
2023-02-19T05:24:07.696Z,9.98
2023-02-19T05:26:34.491Z,9.95
2023-02-19T05:29:01.103Z,10.01
2023-02-19T05:31:27.631Z,10.01
2023-02-19T05:33:56.963Z,9.98
2023-02-19T05:36:24.114Z,10.00
2023-02-19T05:38:55.912Z,10.00
2023-02-19T05:41:27.202Z,10.00
2023-02-19T05:43:54.607Z,10.04
2023-02-19T05:46:23.692Z,10.02
2023-02-19T05:48:52.450Z,10.04
2023-02-19T05:51:21.135Z,10.00
2023-02-19T05:53:47.878Z,10.00
2023-02-19T05:56:34.468Z,10.02
2023-02-19T05:59:03.908Z,9.98
2023-02-19T06:01:30.885Z,9.97
2023-02-19T06:03:58.031Z,9.91
2023-02-19T06:06:25.285Z,9.93
2023-02-19T06:08:52.038Z,9.93
2023-02-19T06:11:19.594Z,9.93
2023-02-19T06:13:46.673Z,9.90
2023-02-19T06:16:13.229Z,9.90
2023-02-19T06:18:42.473Z,9.89
2023-02-19T06:21:11.584Z,9.90
2023-02-19T06:23:39.283Z,9.91
2023-02-19T06:26:14.038Z,9.94
2023-02-19T06:28:41.848Z,9.93
2023-02-19T06:31:09.736Z,9.89
2023-02-19T06:33:40.275Z,9.89
2023-02-19T06:36:08.673Z,9.90
2023-02-19T06:38:35.184Z,9.86
2023-02-19T06:41:03.050Z,9.95
2023-02-19T06:43:30.777Z,9.95
2023-02-19T06:46:01.952Z,9.95
2023-02-19T06:48:30.416Z,9.93
2023-02-19T06:50:57.876Z,9.97
2023-02-19T06:53:24.453Z,9.95
2023-02-19T06:56:01.991Z,9.93
2023-02-19T06:58:28.879Z,9.86
2023-02-19T07:00:55.398Z,9.79
2023-02-19T07:03:22.220Z,9.77
2023-02-19T07:05:49.139Z,9.77
2023-02-19T07:08:17.483Z,9.74
2023-02-19T07:10:44.989Z,9.77
2023-02-19T07:13:12.074Z,9.74
2023-02-19T07:15:38.680Z,9.80
2023-02-19T07:18:07.646Z,9.77
2023-02-19T07:20:35.282Z,9.83
2023-02-19T07:23:02.023Z,9.84
2023-02-19T07:25:28.391Z,9.86
2023-02-19T07:27:55.058Z,9.89
2023-02-19T07:32:36.408Z,9.84
2023-02-19T07:35:02.844Z,9.81
2023-02-19T07:37:29.226Z,9.86
2023-02-19T07:39:55.585Z,9.86
2023-02-19T07:42:22.671Z,9.89
2023-02-19T07:44:49.030Z,9.83
2023-02-19T07:47:15.389Z,9.84
2023-02-19T07:49:42.323Z,9.81
2023-02-19T07:52:14.616Z,9.84
2023-02-19T07:54:41.183Z,9.80
2023-02-19T07:57:07.678Z,9.79
2023-02-19T07:59:35.150Z,9.83
2023-02-19T08:02:22.198Z,9.81
2023-02-19T08:04:48.679Z,9.71
2023-02-19T08:07:21.262Z,9.67
2023-02-19T08:10:07.835Z,9.67
2023-02-19T08:13:00.273Z,9.69
2023-02-19T08:15:27.017Z,9.70
2023-02-19T08:17:56.618Z,9.73
2023-02-19T08:20:22.980Z,9.71
2023-02-19T08:22:49.529Z,9.73
2023-02-19T08:25:16.193Z,9.74
2023-02-19T08:27:42.568Z,9.80
2023-02-19T08:30:09.394Z,9.86
2023-02-19T08:32:35.873Z,9.86
2023-02-19T08:35:02.283Z,9.89
2023-02-19T08:37:28.733Z,9.94
2023-02-19T08:39:55.078Z,9.94
2023-02-19T08:42:22.956Z,10.00
2023-02-19T08:44:49.573Z,10.07
2023-02-19T08:47:16.033Z,10.10
2023-02-19T08:49:42.410Z,10.08
2023-02-19T08:52:08.774Z,10.20
2023-02-19T08:54:37.166Z,10.14
2023-02-19T08:57:05.071Z,10.12
2023-02-19T08:59:32.052Z,10.14
2023-02-19T09:01:59.263Z,10.14
2023-02-19T09:04:36.535Z,10.17
2023-02-19T09:07:05.410Z,10.18
2023-02-19T09:09:36.527Z,10.20
2023-02-19T09:12:11.260Z,10.24
2023-02-19T09:14:45.187Z,10.28
2023-02-19T09:17:11.671Z,10.35
2023-02-19T09:19:41.300Z,10.38
2023-02-19T09:22:07.728Z,10.31
2023-02-19T09:24:34.441Z,10.28
2023-02-19T09:27:00.940Z,10.49
2023-02-19T09:29:30.319Z,10.46
2023-02-19T09:31:58.540Z,10.39
2023-02-19T09:34:30.965Z,10.44
2023-02-19T09:36:57.418Z,10.42
2023-02-19T09:39:23.827Z,10.41
2023-02-19T09:42:19.077Z,10.45
2023-02-19T09:44:49.791Z,10.39
2023-02-19T09:47:21.691Z,10.44
2023-02-19T09:49:51.299Z,10.38
2023-02-19T09:52:40.588Z,10.26
2023-02-19T09:55:27.768Z,10.17
2023-02-19T09:57:55.414Z,10.18
2023-02-19T10:00:25.603Z,10.12
2023-02-19T10:03:03.948Z,10.18
2023-02-19T10:05:31.471Z,10.14
2023-02-19T10:07:58.468Z,10.07
2023-02-19T10:10:32.621Z,10.07
2023-02-19T10:13:16.730Z,10.20
2023-02-19T10:16:00.660Z,10.29
2023-02-19T10:18:35.608Z,10.12
2023-02-19T10:21:02.137Z,10.05
2023-02-19T10:23:28.975Z,9.91
2023-02-19T10:25:57.320Z,9.74
2023-02-19T10:28:28.752Z,9.70
2023-02-19T10:30:58.044Z,9.60
2023-02-19T10:33:25.503Z,9.70
2023-02-19T10:35:55.499Z,9.86
2023-02-19T10:38:46.719Z,9.97
2023-02-19T10:41:20.729Z,10.10
2023-02-19T10:43:59.130Z,10.24
2023-02-19T10:46:33.112Z,10.35
2023-02-19T10:49:04.156Z,10.25
2023-02-19T10:51:34.963Z,10.28
2023-02-19T10:54:18.904Z,10.25
2023-02-19T10:56:45.622Z,10.01
2023-02-19T10:59:18.264Z,9.84
2023-02-19T11:01:58.175Z,9.93
2023-02-19T11:04:26.764Z,9.91
2023-02-19T11:07:00.526Z,9.95
2023-02-19T11:09:34.402Z,10.11
2023-02-19T11:12:04.178Z,10.29
2023-02-19T11:14:33.894Z,10.42
2023-02-19T11:17:05.666Z,10.62
2023-02-19T11:19:41.138Z,10.63
2023-02-19T11:22:31.268Z,10.77
2023-02-19T11:25:07.177Z,10.96
2023-02-19T11:27:53.237Z,11.01
2023-02-19T11:30:34.468Z,10.93
2023-02-19T11:33:17.602Z,11.01
2023-02-19T11:35:44.988Z,11.03
2023-02-19T11:38:14.637Z,11.01
2023-02-19T11:40:45.521Z,11.07
2023-02-19T11:43:30.331Z,11.17
2023-02-19T11:46:29.989Z,11.23
2023-02-19T11:48:59.293Z,11.23
2023-02-19T11:51:46.081Z,11.20
2023-02-19T11:54:38.795Z,11.06
2023-02-19T11:57:47.414Z,10.97
2023-02-19T12:00:42.751Z,11.00
2023-02-19T12:03:30.842Z,11.06
2023-02-19T12:06:03.313Z,11.44
2023-02-19T12:08:57.857Z,11.59
2023-02-19T12:11:44.559Z,11.99
2023-02-19T12:14:35.772Z,11.92
2023-02-19T12:17:09.651Z,11.52
2023-02-19T12:19:42.270Z,11.75
2023-02-19T12:22:23.740Z,11.57
2023-02-19T12:25:01.245Z,11.51
2023-02-19T12:28:01.286Z,11.47
2023-02-19T12:30:46.618Z,11.44
2023-02-19T12:33:18.348Z,11.44
2023-02-19T12:35:56.805Z,11.39
2023-02-19T12:38:35.100Z,11.32
2023-02-19T12:41:11.712Z,11.32
2023-02-19T12:43:43.826Z,11.31
2023-02-19T12:46:20.591Z,11.31
2023-02-19T12:48:55.907Z,11.23
2023-02-19T12:51:25.321Z,11.20
2023-02-19T12:54:06.405Z,11.27
2023-02-19T12:56:44.964Z,11.38
2023-02-19T12:59:34.462Z,11.39
2023-02-19T13:02:05.474Z,11.31
2023-02-19T13:04:45.183Z,11.28
2023-02-19T13:07:21.808Z,11.34
2023-02-19T13:09:55.950Z,11.27
2023-02-19T13:12:34.244Z,11.24
2023-02-19T13:15:04.318Z,11.20
2023-02-19T13:17:36.537Z,11.17
2023-02-19T13:20:35.640Z,11.16
2023-02-19T13:23:33.485Z,11.17
2023-02-19T13:26:26.538Z,11.31
2023-02-19T13:29:11.313Z,11.26
2023-02-19T13:32:12.220Z,11.32
2023-02-19T13:35:23.546Z,11.39
2023-02-19T13:37:50.881Z,11.52
2023-02-19T13:40:39.296Z,11.51
2023-02-19T13:43:20.413Z,11.42
2023-02-19T13:45:47.042Z,11.49
2023-02-19T13:48:42.235Z,11.39
2023-02-19T13:51:23.866Z,11.35
2023-02-19T13:53:58.793Z,11.31
2023-02-19T13:56:34.353Z,11.08
2023-02-19T13:59:34.825Z,11.07
2023-02-19T14:02:01.192Z,10.96
2023-02-19T14:04:46.566Z,10.96
2023-02-19T14:07:12.935Z,10.96
2023-02-19T14:09:39.967Z,10.91
2023-02-19T14:12:16.051Z,10.93
2023-02-19T14:14:46.326Z,10.93
2023-02-19T14:17:47.590Z,10.66
2023-02-19T14:20:17.173Z,10.55
2023-02-19T14:22:46.998Z,10.55
2023-02-19T14:25:34.907Z,10.41
2023-02-19T14:28:30.137Z,10.35
2023-02-19T14:31:10.970Z,10.29
2023-02-19T14:33:43.172Z,10.26
2023-02-19T14:36:34.176Z,10.32
2023-02-19T14:39:11.301Z,10.33
2023-02-19T14:41:40.296Z,10.25
2023-02-19T14:44:15.053Z,10.24
2023-02-19T14:46:51.294Z,10.17
2023-02-19T14:49:22.160Z,10.02
2023-02-19T14:51:53.770Z,9.98
2023-02-19T14:54:33.250Z,9.89
2023-02-19T14:57:01.994Z,9.83
2023-02-19T14:59:30.184Z,9.74
2023-02-19T15:02:04.007Z,9.77
2023-02-19T15:04:36.780Z,9.84
2023-02-19T15:07:07.672Z,9.90
2023-02-19T15:09:41.845Z,9.87
2023-02-19T15:12:39.993Z,10.00
2023-02-19T15:15:07.101Z,10.08
2023-02-19T15:17:40.456Z,10.10
2023-02-19T15:20:11.332Z,10.08
2023-02-19T15:22:41.287Z,10.11
2023-02-19T15:25:12.947Z,10.17
2023-02-19T15:27:39.356Z,10.18
2023-02-19T15:30:20.104Z,10.24
2023-02-19T15:32:58.742Z,10.14
2023-02-19T15:35:29.018Z,10.20
2023-02-19T15:37:56.104Z,10.21
2023-02-19T15:40:29.804Z,10.18
2023-02-19T15:42:57.302Z,10.17
2023-02-19T15:45:32.168Z,10.10
2023-02-19T15:48:07.189Z,9.97
2023-02-19T15:50:35.771Z,9.93
2023-02-19T15:53:09.186Z,9.91
2023-02-19T15:55:45.246Z,9.87
2023-02-19T15:58:30.138Z,9.91
2023-02-19T16:01:05.020Z,9.89
2023-02-19T16:03:32.611Z,9.93
2023-02-19T16:06:05.226Z,9.87
2023-02-19T16:08:39.704Z,10.05
2023-02-19T16:11:37.386Z,10.04
2023-02-19T16:14:35.509Z,9.98
2023-02-19T16:17:09.871Z,10.07
2023-02-19T16:20:00.660Z,10.07
2023-02-19T16:22:30.200Z,10.05
2023-02-19T16:25:05.779Z,10.05
2023-02-19T16:27:42.283Z,10.08
2023-02-19T16:30:14.821Z,10.12
2023-02-19T16:32:41.394Z,10.08
2023-02-19T16:35:39.879Z,10.05
2023-02-19T16:38:19.973Z,10.08
2023-02-19T16:40:49.207Z,10.07
2023-02-19T16:43:26.229Z,10.20
2023-02-19T16:45:53.140Z,10.07
2023-02-19T16:48:21.178Z,10.08
2023-02-19T16:50:47.605Z,10.10
2023-02-19T16:53:24.747Z,10.02
2023-02-19T16:55:52.319Z,10.02
2023-02-19T16:58:18.965Z,10.07
2023-02-19T17:00:45.620Z,9.98
2023-02-19T17:03:15.441Z,9.93
2023-02-19T17:05:42.660Z,9.89
2023-02-19T17:08:24.103Z,9.84
2023-02-19T17:10:50.492Z,9.73
2023-02-19T17:13:16.903Z,9.71
2023-02-19T17:15:43.335Z,9.76
2023-02-19T17:18:11.634Z,9.73
2023-02-19T17:20:38.827Z,9.74
2023-02-19T17:23:05.355Z,9.79
2023-02-19T17:25:31.776Z,9.71
2023-02-19T17:27:58.152Z,9.70
2023-02-19T17:30:30.833Z,9.73
2023-02-19T17:32:57.641Z,9.74
2023-02-19T17:35:24.721Z,9.76
2023-02-19T17:37:53.403Z,9.76
2023-02-19T17:40:32.787Z,9.81
2023-02-19T17:42:59.832Z,9.77
2023-02-19T17:45:26.311Z,9.76
2023-02-19T17:47:53.082Z,9.69
2023-02-19T17:50:25.459Z,9.83
2023-02-19T17:52:52.019Z,9.71
2023-02-19T17:55:19.102Z,9.69
2023-02-19T17:57:46.639Z,9.64
2023-02-19T18:00:15.149Z,9.63
2023-02-19T18:02:41.634Z,9.60
2023-02-19T18:05:08.481Z,9.57
2023-02-19T18:07:35.945Z,9.54
2023-02-19T18:10:03.501Z,9.43
2023-02-19T18:12:29.932Z,9.49
2023-02-19T18:14:57.225Z,9.39
2023-02-19T18:17:25.007Z,9.32
2023-02-19T18:19:52.065Z,9.32
2023-02-19T18:22:19.236Z,9.29
2023-02-19T18:24:53.455Z,9.33
2023-02-19T18:27:20.815Z,9.31
2023-02-19T18:29:55.157Z,9.32
2023-02-19T18:32:24.102Z,9.25
2023-02-19T18:34:52.387Z,9.21
2023-02-19T18:37:19.275Z,9.16
2023-02-19T18:39:45.845Z,9.18
2023-02-19T18:42:12.707Z,9.11
2023-02-19T18:44:39.344Z,9.08
2023-02-19T18:47:06.444Z,9.04
2023-02-19T18:49:32.972Z,9.04
2023-02-19T18:52:01.215Z,9.02
2023-02-19T18:57:35.932Z,9.00
2023-02-19T19:00:02.653Z,8.95
2023-02-19T19:02:36.396Z,8.98
2023-02-19T19:05:06.240Z,8.94
2023-02-19T19:07:32.794Z,8.91
2023-02-19T19:09:59.215Z,8.89
2023-02-19T19:12:25.561Z,8.85
2023-02-19T19:14:52.064Z,8.88
2023-02-19T19:17:18.702Z,8.85
2023-02-19T19:19:45.239Z,8.81
2023-02-19T19:22:11.968Z,8.81
2023-02-19T19:24:38.394Z,8.78
2023-02-19T19:27:04.838Z,8.78
2023-02-19T19:29:31.682Z,8.80
2023-02-19T19:31:58.283Z,8.73
2023-02-19T19:34:24.740Z,8.74
2023-02-19T19:36:51.476Z,8.71
2023-02-19T19:39:17.921Z,8.70
2023-02-19T19:41:44.611Z,8.74
2023-02-19T19:44:12.559Z,8.73
2023-02-19T19:46:45.807Z,8.70
2023-02-19T19:49:16.190Z,8.71
2023-02-19T19:51:42.621Z,8.65
2023-02-19T19:54:09.134Z,8.59
2023-02-19T19:56:41.373Z,8.56
2023-02-19T19:59:10.281Z,8.57
2023-02-19T20:01:37.021Z,8.59
2023-02-19T20:04:03.692Z,8.54
2023-02-19T20:06:32.409Z,8.56
2023-02-19T20:09:00.015Z,8.54
2023-02-19T20:11:26.578Z,8.54
2023-02-19T20:13:53.001Z,8.49
2023-02-19T20:16:27.635Z,8.43
2023-02-19T20:18:54.118Z,8.47
2023-02-19T20:21:20.660Z,8.40
2023-02-19T20:23:47.098Z,8.30
2023-02-19T20:26:13.533Z,8.29
2023-02-19T20:28:45.045Z,8.22
2023-02-19T20:31:12.145Z,8.13
2023-02-19T20:33:38.728Z,8.03
2023-02-19T20:36:05.611Z,7.98
2023-02-19T20:38:32.038Z,8.01
2023-02-19T20:40:58.646Z,7.98
2023-02-19T20:43:25.100Z,7.98
2023-02-19T20:45:51.599Z,7.92
2023-02-19T20:48:18.057Z,7.86
2023-02-19T20:50:44.563Z,7.81
2023-02-19T20:53:14.362Z,7.75
2023-02-19T20:55:40.787Z,7.77
2023-02-19T20:58:07.323Z,7.71
2023-02-19T21:00:33.709Z,7.75
2023-02-19T21:03:00.357Z,7.68
2023-02-19T21:05:26.807Z,7.72
2023-02-19T21:07:53.299Z,7.68
2023-02-19T21:10:20.620Z,7.63
2023-02-19T21:12:47.962Z,7.55
2023-02-19T21:15:14.714Z,7.55
2023-02-19T21:17:44.067Z,7.50
2023-02-19T21:20:10.867Z,7.47
2023-02-19T21:22:37.245Z,7.51
2023-02-19T21:25:03.814Z,7.48
2023-02-19T21:27:30.226Z,7.37
2023-02-19T21:29:56.729Z,7.37
2023-02-19T21:32:23.291Z,7.22
2023-02-19T21:34:49.823Z,7.27
2023-02-19T21:37:16.253Z,7.20
2023-02-19T21:39:42.827Z,7.28
2023-02-19T21:42:09.583Z,7.23
2023-02-19T21:44:36.142Z,7.17
2023-02-19T21:47:02.546Z,7.10
2023-02-19T21:49:29.695Z,7.10
2023-02-19T21:51:56.354Z,7.09
2023-02-19T21:54:25.293Z,6.97
2023-02-19T21:56:52.949Z,7.02
2023-02-19T21:59:21.332Z,7.02
2023-02-19T22:01:48.023Z,6.89
2023-02-19T22:04:17.373Z,6.96
2023-02-19T22:06:44.101Z,7.02
2023-02-19T22:09:11.824Z,6.97
2023-02-19T22:11:38.347Z,6.84
2023-02-19T22:14:04.796Z,6.84
2023-02-19T22:16:31.309Z,6.75
2023-02-19T22:18:59.503Z,6.74
2023-02-19T22:21:33.917Z,6.68
2023-02-19T22:24:02.196Z,6.61
2023-02-19T22:26:32.033Z,6.67
2023-02-19T22:28:59.482Z,6.78
2023-02-19T22:31:27.818Z,6.75
2023-02-19T22:34:03.286Z,6.67
2023-02-19T22:36:31.563Z,6.69
2023-02-19T22:38:57.975Z,6.72
2023-02-19T22:41:24.852Z,6.65
2023-02-19T22:43:54.696Z,6.67
2023-02-19T22:46:23.506Z,6.71
2023-02-19T22:48:50.692Z,6.72
2023-02-19T22:51:19.517Z,6.65
2023-02-19T22:53:48.558Z,6.88
2023-02-19T22:56:16.947Z,6.79
2023-02-19T22:58:44.115Z,6.79
2023-02-19T23:01:12.729Z,6.95
2023-02-19T23:03:49.034Z,6.93
2023-02-19T23:06:17.212Z,6.95
2023-02-19T23:08:44.315Z,6.93
2023-02-19T23:11:12.431Z,7.12
2023-02-19T23:13:41.222Z,7.00
2023-02-19T23:16:07.676Z,7.05
2023-02-19T23:18:34.036Z,7.07
2023-02-19T23:21:00.477Z,7.09
2023-02-19T23:23:26.891Z,7.12
2023-02-19T23:25:53.551Z,6.99
2023-02-19T23:28:19.942Z,6.92
2023-02-19T23:30:46.531Z,6.92
2023-02-19T23:33:13.682Z,6.74
2023-02-19T23:35:40.081Z,6.74
2023-02-19T23:38:06.466Z,6.55
2023-02-19T23:40:32.880Z,6.47
2023-02-19T23:42:59.402Z,6.37
2023-02-19T23:45:25.811Z,6.28
2023-02-19T23:47:52.253Z,6.14
2023-02-19T23:50:18.827Z,6.18
2023-02-19T23:52:45.201Z,6.20
2023-02-19T23:55:11.694Z,6.02
2023-02-19T23:57:38.049Z,6.06
